Time;durP1;ratioP1;P1;durP2;ratioP2;P2;SDS_P1;SDS_P2;PMS_P1;PMS_P2;Temp;Humidity;BMP_temperature;BMP_pressure;BME280_temperature;BME280_humidity;BME280_pressure;Samples;Min_cycle;Max_cycle;Signal;HPM_P1;HPM_P2
2022/08/06 00:00:58;;;;;;;;;;;;;;;22.51;63.65;100277.56;84716;1330;25431;-70
2022/08/06 00:03:05;;;;;;;;;;;;;;;22.47;63.73;100283.94;84707;1328;23901;-71
2022/08/06 00:05:13;;;;;;;;;;;;;;;22.45;63.67;100284.48;84712;1327;22664;-71
2022/08/06 00:07:20;;;;;;;;;;;;;;;22.42;63.69;100286.33;84706;1329;22589;-71
2022/08/06 00:09:30;;;;;;;;;;;;;;;22.38;63.89;100284.39;84725;1329;22592;-70
2022/08/06 00:11:37;;;;;;;;;;;;;;;22.34;63.95;100282.41;84707;1329;22856;-70
2022/08/06 00:13:44;;;;;;;;;;;;;;;22.30;64.17;100279.61;84722;1329;24314;-72
2022/08/06 00:15:52;;;;;;;;;;;;;;;22.26;64.26;100283.02;84725;1325;22564;-71
2022/08/06 00:17:59;;;;;;;;;;;;;;;22.22;64.47;100297.77;84772;1327;23833;-71
2022/08/06 00:20:10;;;;;;;;;;;;;;;22.18;64.50;100320.65;84743;1329;25017;-70
2022/08/06 00:22:17;;;;;;;;;;;;;;;22.12;64.58;100318.11;84745;1324;22567;-71
2022/08/06 00:24:24;;;;;;;;;;;;;;;22.07;64.94;100291.70;84734;1330;26443;-72
2022/08/06 00:26:45;;;;;;;;;;;;;;;22.02;65.05;100287.38;84790;1330;22558;-71
2022/08/06 00:29:17;;;;;;;;;;;;;;;21.97;65.14;100291.02;84741;1328;23209;-69
2022/08/06 00:31:57;;;;;;;;;;;;;;;21.90;65.38;100300.33;84713;1326;22605;-67
2022/08/06 00:34:37;;;;;;;;;;;;;;;21.82;65.64;100311.33;84776;1327;23067;-70
2022/08/06 00:37:13;;;;;;;;;;;;;;;21.72;66.00;100318.77;84726;1329;22582;-69
2022/08/06 00:39:28;;;;;;;;;;;;;;;21.65;66.23;100292.36;84787;1325;22542;-71
2022/08/06 00:41:36;;;;;;;;;;;;;;;21.59;66.51;100290.04;84604;1327;22584;-72
2022/08/06 00:43:45;;;;;;;;;;;;;;;21.53;66.73;100295.02;84777;1325;22548;-71
2022/08/06 00:45:52;;;;;;;;;;;;;;;21.49;66.89;100298.19;84676;1324;22797;-71
2022/08/06 00:48:00;;;;;;;;;;;;;;;21.43;67.03;100298.45;84762;1327;22565;-71
2022/08/06 00:50:10;;;;;;;;;;;;;;;21.37;67.27;100296.28;84720;1326;22619;-71
2022/08/06 00:52:22;;;;;;;;;;;;;;;21.32;67.49;100299.58;84592;1332;22592;-71
2022/08/06 00:54:30;;;;;;;;;;;;;;;21.28;67.62;100301.64;84754;1330;22557;-71
2022/08/06 00:56:37;;;;;;;;;;;;;;;21.24;67.91;100301.15;84692;1330;22577;-71
2022/08/06 00:58:45;;;;;;;;;;;;;;;21.16;68.07;100302.14;84775;1327;22570;-72
2022/08/06 01:00:53;;;;;;;;;;;;;;;21.09;68.32;100304.13;84717;1330;22555;-71
2022/08/06 01:03:00;;;;;;;;;;;;;;;21.04;68.63;100306.70;84767;1325;22561;-70
2022/08/06 01:05:08;;;;;;;;;;;;;;;20.96;68.96;100306.06;84772;1328;25443;-72
2022/08/06 01:07:15;;;;;;;;;;;;;;;20.90;69.33;100302.91;84740;1330;22577;-71
2022/08/06 01:09:22;;;;;;;;;;;;;;;20.82;69.60;100302.31;84783;1327;22540;-71
2022/08/06 01:11:29;;;;;;;;;;;;;;;20.75;69.91;100297.74;84316;1324;663496;-71
2022/08/06 01:13:37;;;;;;;;;;;;;;;20.69;70.23;100293.59;84740;1328;22566;-69
2022/08/06 01:15:47;;;;;;;;;;;;;;;20.63;70.63;100289.14;84674;1330;22584;-71
2022/08/06 01:17:56;;;;;;;;;;;;;;;20.57;70.81;100291.94;84681;1329;22577;-71
2022/08/06 01:20:08;;;;;;;;;;;;;;;20.50;71.28;100286.25;84665;1325;25323;-71
2022/08/06 01:22:23;;;;;;;;;;;;;;;20.46;71.66;100277.73;84666;1329;22569;-71
2022/08/06 01:24:49;;;;;;;;;;;;;;;20.42;71.86;100276.10;84691;1330;22578;-70
2022/08/06 01:26:57;;;;;;;;;;;;;;;20.40;71.99;100273.23;84664;1329;23898;-70
2022/08/06 01:29:06;;;;;;;;;;;;;;;20.40;72.18;100276.83;84671;1328;22636;-71
2022/08/06 01:31:14;;;;;;;;;;;;;;;20.40;72.16;100273.08;84706;1329;22574;-72
2022/08/06 01:33:25;;;;;;;;;;;;;;;20.40;72.32;100268.14;84725;1327;24092;-71
2022/08/06 01:35:35;;;;;;;;;;;;;;;20.38;72.37;100264.17;84702;1329;22566;-70
2022/08/06 01:37:44;;;;;;;;;;;;;;;20.36;72.43;100266.81;84722;1329;24857;-71
2022/08/06 01:39:54;;;;;;;;;;;;;;;20.35;72.58;100268.32;84710;1324;22615;-71
2022/08/06 01:42:01;;;;;;;;;;;;;;;20.36;72.57;100277.47;84719;1332;22767;-71
2022/08/06 01:44:09;;;;;;;;;;;;;;;20.35;72.65;100279.64;84691;1331;23968;-71
2022/08/06 01:46:16;;;;;;;;;;;;;;;20.35;72.72;100271.16;84680;1330;22537;-70
2022/08/06 01:48:26;;;;;;;;;;;;;;;20.33;72.86;100274.52;84636;1330;22972;-71
2022/08/06 01:50:35;;;;;;;;;;;;;;;20.30;72.98;100281.70;84731;1328;23936;-71
2022/08/06 01:52:43;;;;;;;;;;;;;;;20.26;73.16;100274.03;84660;1330;22594;-71
2022/08/06 01:54:50;;;;;;;;;;;;;;;20.23;73.46;100276.73;84692;1329;24267;-71
2022/08/06 01:56:58;;;;;;;;;;;;;;;20.20;73.57;100274.16;84675;1331;22567;-72
2022/08/06 01:59:06;;;;;;;;;;;;;;;20.17;73.67;100275.13;84691;1330;23972;-71
2022/08/06 02:01:15;;;;;;;;;;;;;;;20.13;73.78;100275.38;84714;1324;22711;-71
2022/08/06 02:03:25;;;;;;;;;;;;;;;20.10;73.96;100272.28;84699;1329;22615;-70
2022/08/06 02:05:35;;;;;;;;;;;;;;;20.07;73.99;100272.85;84670;1326;22587;-70
2022/08/06 02:07:44;;;;;;;;;;;;;;;20.04;74.14;100274.14;84658;1330;22637;-70
2022/08/06 02:09:53;;;;;;;;;;;;;;;20.01;74.19;100275.25;84702;1329;23990;-71
2022/08/06 02:12:02;;;;;;;;;;;;;;;19.97;74.50;100272.23;84614;1327;22607;-71
2022/08/06 02:14:09;;;;;;;;;;;;;;;19.93;74.64;100276.14;84707;1329;22565;-69
2022/08/06 02:16:16;;;;;;;;;;;;;;;19.90;74.84;100279.16;84665;1329;22588;-70
2022/08/06 02:18:23;;;;;;;;;;;;;;;19.89;75.43;100279.96;84719;1325;22715;-70
2022/08/06 02:20:39;;;;;;;;;;;;;;;19.88;75.68;100280.77;84669;1331;22560;-71
2022/08/06 02:22:46;;;;;;;;;;;;;;;19.85;75.78;100283.61;84666;1329;23909;-71
2022/08/06 02:24:53;;;;;;;;;;;;;;;19.83;75.82;100288.04;84645;1329;22563;-71
2022/08/06 02:27:01;;;;;;;;;;;;;;;19.78;75.94;100281.15;84545;1331;22586;-71
2022/08/06 02:29:09;;;;;;;;;;;;;;;19.73;75.92;100285.25;84704;1327;25281;-70
2022/08/06 02:31:18;;;;;;;;;;;;;;;19.71;76.14;100285.41;84730;1327;22563;-70
2022/08/06 02:33:25;;;;;;;;;;;;;;;19.71;76.43;100285.83;84673;1326;22568;-70
2022/08/06 02:35:32;;;;;;;;;;;;;;;19.71;76.46;100293.41;84686;1328;22588;-71
2022/08/06 02:37:44;;;;;;;;;;;;;;;19.71;76.69;100296.44;84687;1330;22571;-71
2022/08/06 02:39:56;;;;;;;;;;;;;;;19.70;76.84;100297.40;84769;1327;22579;-70
2022/08/06 02:42:07;;;;;;;;;;;;;;;19.69;76.94;100301.73;84767;1327;22758;-69
2022/08/06 02:44:16;;;;;;;;;;;;;;;19.69;76.91;100302.06;84697;1328;27055;-70
2022/08/06 02:46:26;;;;;;;;;;;;;;;19.70;76.87;100308.00;84720;1329;22620;-70
2022/08/06 02:48:36;;;;;;;;;;;;;;;19.67;76.96;100304.31;84733;1328;22699;-70
2022/08/06 02:50:46;;;;;;;;;;;;;;;19.65;77.14;100296.86;84744;1327;22676;-71
2022/08/06 02:52:57;;;;;;;;;;;;;;;19.65;77.18;100295.30;84689;1329;25359;-72
2022/08/06 02:55:06;;;;;;;;;;;;;;;19.64;77.08;100292.86;84678;1330;24947;-72
2022/08/06 02:57:16;;;;;;;;;;;;;;;19.64;77.33;100294.09;84721;1329;24256;-70
2022/08/06 02:59:30;;;;;;;;;;;;;;;19.65;77.15;100296.55;84687;1329;22586;-70
2022/08/06 03:01:41;;;;;;;;;;;;;;;19.64;77.19;100302.80;84652;1328;22616;-71
2022/08/06 03:03:49;;;;;;;;;;;;;;;19.62;77.03;100306.86;84737;1328;22577;-69
2022/08/06 03:05:57;;;;;;;;;;;;;;;19.58;77.14;100308.13;84657;1330;22573;-71
2022/08/06 03:08:05;;;;;;;;;;;;;;;19.55;77.24;100313.34;84655;1330;22578;-71
2022/08/06 03:10:13;;;;;;;;;;;;;;;19.49;77.19;100317.70;84674;1330;24345;-71
2022/08/06 03:12:20;;;;;;;;;;;;;;;19.44;77.42;100318.27;84726;1327;22638;-71
2022/08/06 03:14:27;;;;;;;;;;;;;;;19.37;77.50;100318.79;84764;1328;22566;-70
2022/08/06 03:16:37;;;;;;;;;;;;;;;19.31;77.75;100319.95;84725;1328;22584;-70
2022/08/06 03:18:45;;;;;;;;;;;;;;;19.25;77.84;100326.94;84652;1330;24370;-70
2022/08/06 03:20:52;;;;;;;;;;;;;;;19.21;77.85;100331.14;84739;1327;25415;-71
2022/08/06 03:23:04;;;;;;;;;;;;;;;19.18;78.13;100331.70;84791;1327;22580;-71
2022/08/06 03:25:12;;;;;;;;;;;;;;;19.17;78.21;100332.52;84728;1328;23930;-71
2022/08/06 03:27:19;;;;;;;;;;;;;;;19.17;78.28;100332.14;84747;1327;22574;-69
2022/08/06 03:29:29;;;;;;;;;;;;;;;19.18;78.61;100331.42;84675;1330;24134;-71
2022/08/06 03:31:36;;;;;;;;;;;;;;;19.17;78.67;100340.14;84663;1329;22712;-71
2022/08/06 03:33:43;;;;;;;;;;;;;;;19.17;78.67;100339.40;84696;1329;22562;-71
2022/08/06 03:35:51;;;;;;;;;;;;;;;19.17;78.87;100341.88;84694;1330;22591;-71
2022/08/06 03:37:58;;;;;;;;;;;;;;;19.19;78.93;100341.54;84660;1330;22884;-71
2022/08/06 03:40:06;;;;;;;;;;;;;;;19.20;78.92;100341.08;84684;1330;22605;-71
2022/08/06 03:42:14;;;;;;;;;;;;;;;19.22;78.97;100348.79;84655;1325;22601;-71
2022/08/06 03:44:21;;;;;;;;;;;;;;;19.24;79.09;100350.39;84729;1325;25421;-71
2022/08/06 03:46:31;;;;;;;;;;;;;;;19.27;79.12;100356.84;84631;1330;24235;-71
2022/08/06 03:48:41;;;;;;;;;;;;;;;19.31;79.28;100362.24;84673;1329;22621;-70
2022/08/06 03:50:49;;;;;;;;;;;;;;;19.38;79.36;100357.68;84684;1329;24935;-71
2022/08/06 03:52:59;;;;;;;;;;;;;;;19.50;79.53;100353.23;84692;1324;22914;-71
2022/08/06 03:55:13;;;;;;;;;;;;;;;19.64;79.47;100353.39;84696;1329;22582;-72
2022/08/06 03:57:32;;;;;;;;;;;;;;;19.85;79.47;100359.59;84738;1330;22602;-71
2022/08/06 03:59:42;;;;;;;;;;;;;;;20.11;79.52;100359.17;84709;1328;22574;-71
2022/08/06 04:01:50;;;;;;;;;;;;;;;20.40;79.52;100360.02;84677;1330;22565;-69
2022/08/06 04:03:59;;;;;;;;;;;;;;;20.75;79.29;100364.24;84704;1324;22571;-71
2022/08/06 04:06:09;;;;;;;;;;;;;;;21.06;78.49;100368.23;84658;1329;22684;-71
2022/08/06 04:08:16;;;;;;;;;;;;;;;21.33;77.34;100366.73;84707;1328;23026;-71
2022/08/06 04:10:24;;;;;;;;;;;;;;;21.57;77.00;100368.13;84683;1324;22573;-71
2022/08/06 04:12:31;;;;;;;;;;;;;;;21.86;76.53;100377.72;84702;1330;22813;-71
2022/08/06 04:14:38;;;;;;;;;;;;;;;22.04;75.18;100383.83;84674;1325;22562;-70
2022/08/06 04:16:45;;;;;;;;;;;;;;;22.09;74.17;100385.69;84690;1324;23152;-71
2022/08/06 04:18:55;;;;;;;;;;;;;;;22.13;73.94;100385.08;84676;1330;22567;-72
2022/08/06 04:21:03;;;;;;;;;;;;;;;22.18;73.50;100382.45;84711;1328;22844;-70
2022/08/06 04:23:11;;;;;;;;;;;;;;;22.24;73.15;100388.19;84693;1329;25796;-70
2022/08/06 04:25:18;;;;;;;;;;;;;;;22.26;72.80;100397.77;84723;1327;22628;-71
2022/08/06 04:27:25;;;;;;;;;;;;;;;22.27;72.55;100400.16;84687;1329;22817;-71
2022/08/06 04:29:32;;;;;;;;;;;;;;;22.31;72.54;100404.61;84688;1327;24255;-72
2022/08/06 04:31:39;;;;;;;;;;;;;;;22.38;72.21;100404.76;84694;1328;25311;-70
2022/08/06 04:33:47;;;;;;;;;;;;;;;22.41;71.91;100411.77;84677;1325;22584;-71
2022/08/06 04:35:53;;;;;;;;;;;;;;;22.43;71.75;100410.87;84678;1329;22583;-71
2022/08/06 04:38:01;;;;;;;;;;;;;;;22.44;71.66;100422.52;84701;1327;22741;-71
2022/08/06 04:40:11;;;;;;;;;;;;;;;22.43;71.53;100430.09;84663;1329;22813;-71
2022/08/06 04:42:18;;;;;;;;;;;;;;;22.37;71.29;100429.30;84713;1327;22643;-72
2022/08/06 04:44:27;;;;;;;;;;;;;;;22.32;71.32;100431.55;84648;1329;22848;-70
2022/08/06 04:46:35;;;;;;;;;;;;;;;22.22;71.13;100434.72;84709;1324;23026;-70
2022/08/06 04:48:42;;;;;;;;;;;;;;;22.13;71.14;100439.06;84658;1325;25004;-71
2022/08/06 04:50:49;;;;;;;;;;;;;;;22.05;71.66;100441.10;84608;1329;22589;-71
2022/08/06 04:52:59;;;;;;;;;;;;;;;22.01;71.92;100451.94;84657;1328;22585;-70
2022/08/06 04:55:08;;;;;;;;;;;;;;;21.98;72.08;100452.94;84664;1330;22615;-70
2022/08/06 04:57:15;;;;;;;;;;;;;;;21.97;72.45;100455.48;84685;1330;22564;-70
2022/08/06 04:59:23;;;;;;;;;;;;;;;21.96;72.58;100461.78;84758;1327;22555;-72
2022/08/06 05:01:30;;;;;;;;;;;;;;;21.96;72.76;100464.08;84699;1329;24378;-72
2022/08/06 05:03:37;;;;;;;;;;;;;;;21.97;72.94;100470.05;84757;1327;22656;-71
2022/08/06 05:05:52;;;;;;;;;;;;;;;21.97;73.12;100472.56;84711;1327;22554;-70
2022/08/06 05:07:59;;;;;;;;;;;;;;;21.93;73.09;100468.09;84724;1330;24822;-70
2022/08/06 05:10:08;;;;;;;;;;;;;;;21.93;73.53;100467.88;84738;1327;22644;-70
2022/08/06 05:12:17;;;;;;;;;;;;;;;21.91;73.45;100468.77;84721;1327;25412;-72
2022/08/06 05:14:28;;;;;;;;;;;;;;;21.90;73.58;100469.06;84766;1327;22571;-73
2022/08/06 05:16:38;;;;;;;;;;;;;;;21.86;73.74;100473.85;84668;1328;22586;-72
2022/08/06 05:18:47;;;;;;;;;;;;;;;21.83;74.12;100475.44;84658;1330;22809;-71
2022/08/06 05:20:56;;;;;;;;;;;;;;;21.81;74.19;100472.06;84689;1325;23163;-72
2022/08/06 05:23:04;;;;;;;;;;;;;;;21.81;74.47;100478.02;84671;1328;22564;-71
2022/08/06 05:25:12;;;;;;;;;;;;;;;21.79;74.57;100484.32;84687;1329;22571;-71
2022/08/06 05:27:19;;;;;;;;;;;;;;;21.79;74.61;100488.95;84681;1330;25332;-70
2022/08/06 05:29:27;;;;;;;;;;;;;;;21.79;74.88;100497.28;84678;1330;25407;-71
2022/08/06 05:31:35;;;;;;;;;;;;;;;21.79;75.00;100507.25;84658;1325;22895;-71
2022/08/06 05:33:43;;;;;;;;;;;;;;;21.78;75.01;100520.17;84685;1324;22565;-71
2022/08/06 05:35:50;;;;;;;;;;;;;;;21.79;75.02;100527.19;84657;1328;22561;-71
2022/08/06 05:37:57;;;;;;;;;;;;;;;21.80;75.33;100538.91;84671;1329;23904;-70
2022/08/06 05:40:05;;;;;;;;;;;;;;;21.77;75.20;100547.23;84661;1329;23921;-71
2022/08/06 05:42:12;;;;;;;;;;;;;;;21.76;75.21;100562.71;84712;1330;25552;-71
2022/08/06 05:44:19;;;;;;;;;;;;;;;21.76;75.21;100571.27;84686;1330;26478;-70
2022/08/06 05:46:27;;;;;;;;;;;;;;;21.73;75.38;100581.10;84691;1330;23933;-69
2022/08/06 05:48:35;;;;;;;;;;;;;;;21.70;75.63;100585.59;84663;1328;22573;-70
2022/08/06 05:50:48;;;;;;;;;;;;;;;21.68;75.68;100593.98;84633;1330;22577;-69
2022/08/06 05:52:58;;;;;;;;;;;;;;;21.64;76.09;100599.40;84693;1329;23217;-72
2022/08/06 05:55:06;;;;;;;;;;;;;;;21.58;76.15;100599.67;84728;1330;22563;-71
2022/08/06 05:57:16;;;;;;;;;;;;;;;21.54;76.38;100603.19;84689;1329;22589;-71
2022/08/06 05:59:28;;;;;;;;;;;;;;;21.49;76.52;100603.61;84700;1328;22610;-71
2022/08/06 06:01:35;;;;;;;;;;;;;;;21.47;76.95;100603.41;84707;1329;22577;-71
2022/08/06 06:03:42;;;;;;;;;;;;;;;21.47;76.93;100606.27;84696;1329;22806;-73
2022/08/06 06:05:49;;;;;;;;;;;;;;;21.45;77.11;100614.73;84676;1330;22562;-72
2022/08/06 06:07:56;;;;;;;;;;;;;;;21.42;77.29;100620.89;84632;1333;22702;-72
2022/08/06 06:10:04;;;;;;;;;;;;;;;21.38;77.47;100617.97;84702;1322;22646;-72
2022/08/06 06:12:11;;;;;;;;;;;;;;;21.37;77.80;100621.45;84698;1328;22573;-72
2022/08/06 06:14:34;;;;;;;;;;;;;;;21.34;78.19;100624.14;84683;1330;22580;-71
2022/08/06 06:16:46;;;;;;;;;;;;;;;21.30;78.06;100628.04;84679;1324;22621;-70
2022/08/06 06:19:03;;;;;;;;;;;;;;;21.28;78.54;100625.83;84676;1329;22868;-71
2022/08/06 06:21:15;;;;;;;;;;;;;;;21.26;78.72;100625.27;84694;1328;22577;-71
2022/08/06 06:23:33;;;;;;;;;;;;;;;21.23;79.51;100625.91;84696;1330;22565;-71
2022/08/06 06:25:41;;;;;;;;;;;;;;;21.16;79.43;100628.02;84722;1328;22566;-71
2022/08/06 06:27:51;;;;;;;;;;;;;;;21.12;79.20;100632.72;84618;1326;22859;-73
2022/08/06 06:30:00;;;;;;;;;;;;;;;21.13;79.96;100632.52;84730;1327;22592;-71
2022/08/06 06:32:09;;;;;;;;;;;;;;;21.08;80.01;100636.65;84712;1328;22680;-70
2022/08/06 06:34:21;;;;;;;;;;;;;;;21.03;80.19;100636.66;84771;1327;22733;-72
2022/08/06 06:36:32;;;;;;;;;;;;;;;20.97;80.57;100643.69;84688;1329;22581;-72
2022/08/06 06:38:43;;;;;;;;;;;;;;;20.94;80.43;100648.73;84739;1327;25413;-71
2022/08/06 06:40:54;;;;;;;;;;;;;;;20.94;80.57;100662.61;84698;1330;22567;-71
2022/08/06 06:43:13;;;;;;;;;;;;;;;20.93;80.41;100675.06;84737;1327;22692;-71
2022/08/06 06:45:23;;;;;;;;;;;;;;;20.91;81.15;100683.01;84701;1328;22821;-70
2022/08/06 06:47:33;;;;;;;;;;;;;;;20.88;81.26;100691.00;84742;1329;22704;-70
2022/08/06 06:49:44;;;;;;;;;;;;;;;20.84;81.42;100685.45;84701;1329;22837;-70
2022/08/06 06:51:54;;;;;;;;;;;;;;;20.82;81.47;100679.78;84769;1327;23866;-70
2022/08/06 06:54:03;;;;;;;;;;;;;;;20.77;82.68;100678.38;84792;1327;24296;-71
2022/08/06 06:56:10;;;;;;;;;;;;;;;20.67;82.80;100680.22;84677;1330;25297;-70
2022/08/06 06:58:20;;;;;;;;;;;;;;;20.57;82.70;100685.35;84750;1325;22566;-70
2022/08/06 07:00:27;;;;;;;;;;;;;;;20.51;83.89;100682.14;84726;1330;22833;-70
2022/08/06 07:02:36;;;;;;;;;;;;;;;20.45;84.35;100677.60;84688;1324;24290;-71
2022/08/06 07:04:44;;;;;;;;;;;;;;;20.40;84.26;100673.89;84743;1327;22593;-71
2022/08/06 07:06:54;;;;;;;;;;;;;;;20.38;84.36;100677.73;84753;1327;22662;-71
2022/08/06 07:09:02;;;;;;;;;;;;;;;20.34;84.78;100679.08;84676;1329;22566;-72
2022/08/06 07:11:09;;;;;;;;;;;;;;;20.32;85.07;100678.02;84752;1328;25288;-71
2022/08/06 07:13:17;;;;;;;;;;;;;;;20.29;85.27;100678.40;84675;1330;22572;-70
2022/08/06 07:15:24;;;;;;;;;;;;;;;20.26;84.85;100682.19;84738;1327;23854;-69
2022/08/06 07:17:33;;;;;;;;;;;;;;;20.24;85.50;100683.05;84754;1327;25241;-71
2022/08/06 07:19:40;;;;;;;;;;;;;;;20.22;85.46;100688.13;84712;1328;22586;-69
2022/08/06 07:21:47;;;;;;;;;;;;;;;20.22;85.95;100694.70;84723;1327;22559;-70
2022/08/06 07:23:58;;;;;;;;;;;;;;;20.18;85.43;100696.58;84758;1326;22589;-71
2022/08/06 07:26:08;;;;;;;;;;;;;;;20.13;85.70;100696.79;84702;1329;25340;-71
2022/08/06 07:28:16;;;;;;;;;;;;;;;20.08;86.00;100696.42;84724;1327;22668;-72
2022/08/06 07:30:23;;;;;;;;;;;;;;;20.05;86.13;100700.34;84665;1330;22563;-70
2022/08/06 07:32:32;;;;;;;;;;;;;;;20.02;86.22;100701.77;84690;1325;22559;-71
2022/08/06 07:34:40;;;;;;;;;;;;;;;19.98;86.08;100695.02;84702;1324;22576;-71
2022/08/06 07:36:49;;;;;;;;;;;;;;;19.95;86.33;100694.00;84643;1330;22605;-72
2022/08/06 07:38:59;;;;;;;;;;;;;;;19.94;86.87;100696.73;84760;1327;22803;-72
2022/08/06 07:41:07;;;;;;;;;;;;;;;19.92;87.10;100704.85;84688;1328;22656;-71
2022/08/06 07:43:18;;;;;;;;;;;;;;;19.92;87.07;100711.90;84733;1327;22785;-70
2022/08/06 07:45:25;;;;;;;;;;;;;;;19.92;87.02;100713.49;84669;1330;22853;-72
2022/08/06 07:47:36;;;;;;;;;;;;;;;19.92;87.35;100721.15;84745;1327;25543;-71
2022/08/06 07:49:44;;;;;;;;;;;;;;;19.89;87.50;100726.69;84682;1329;24438;-71
2022/08/06 07:51:51;;;;;;;;;;;;;;;19.87;87.45;100727.14;84674;1329;22947;-72
2022/08/06 07:54:00;;;;;;;;;;;;;;;19.89;87.49;100724.04;84715;1328;22841;-71
2022/08/06 07:56:09;;;;;;;;;;;;;;;19.89;87.58;100723.45;84755;1330;25514;-71
2022/08/06 07:58:17;;;;;;;;;;;;;;;19.89;87.63;100728.42;84691;1326;25445;-72
2022/08/06 08:00:24;;;;;;;;;;;;;;;19.89;87.52;100728.59;84731;1324;22592;-71
2022/08/06 08:02:31;;;;;;;;;;;;;;;19.89;87.52;100724.38;84683;1329;22646;-71
2022/08/06 08:07:04;;;;;;;;;;;;;;;19.90;88.00;100743.23;84696;1329;26011;-70
2022/08/06 08:09:14;;;;;;;;;;;;;;;19.90;87.72;100751.36;84717;1327;22728;-70
2022/08/06 08:11:23;;;;;;;;;;;;;;;19.90;88.18;100752.80;84743;1328;22667;-71
2022/08/06 08:13:34;;;;;;;;;;;;;;;19.89;87.83;100750.25;84754;1328;22875;-69
2022/08/06 08:15:41;;;;;;;;;;;;;;;19.86;87.82;100758.77;84724;1327;22563;-69
2022/08/06 08:17:50;;;;;;;;;;;;;;;19.84;87.95;100763.48;84686;1330;22577;-71
2022/08/06 08:19:58;;;;;;;;;;;;;;;19.81;88.00;100779.45;84708;1324;23007;-71
2022/08/06 08:22:06;;;;;;;;;;;;;;;19.80;88.23;100788.57;84671;1329;24298;-70
2022/08/06 08:24:14;;;;;;;;;;;;;;;19.77;88.31;100800.40;84665;1330;25442;-70
2022/08/06 08:26:21;;;;;;;;;;;;;;;19.76;88.08;100818.95;84645;1333;22628;-70
2022/08/06 08:28:30;;;;;;;;;;;;;;;19.74;88.01;100838.31;84652;1329;24309;-70
2022/08/06 08:30:42;;;;;;;;;;;;;;;19.75;88.28;100844.48;84678;1330;22571;-70
2022/08/06 08:32:49;;;;;;;;;;;;;;;19.77;88.46;100840.30;84684;1325;22851;-70
2022/08/06 08:34:57;;;;;;;;;;;;;;;19.78;88.78;100831.52;84623;1329;22835;-71
2022/08/06 08:37:05;;;;;;;;;;;;;;;19.77;88.71;100815.30;84696;1329;25443;-71
2022/08/06 08:39:12;;;;;;;;;;;;;;;19.74;89.01;100807.17;84654;1327;22717;-71
2022/08/06 08:41:22;;;;;;;;;;;;;;;19.70;89.14;100803.44;84618;1329;22587;-71
2022/08/06 08:43:34;;;;;;;;;;;;;;;19.69;89.16;100813.05;84613;1329;23904;-70
2022/08/06 08:45:42;;;;;;;;;;;;;;;19.70;89.03;100824.51;84622;1329;24239;-71
2022/08/06 08:47:50;;;;;;;;;;;;;;;19.70;89.20;100836.50;84687;1330;25304;-75
2022/08/06 08:50:00;;;;;;;;;;;;;;;19.72;89.46;100856.00;84700;1330;22561;-72
2022/08/06 08:52:08;;;;;;;;;;;;;;;19.68;89.03;100873.27;84709;1329;22572;-70
2022/08/06 08:54:18;;;;;;;;;;;;;;;19.66;89.13;100890.98;84703;1329;22573;-70
2022/08/06 08:56:26;;;;;;;;;;;;;;;19.67;89.31;100905.61;84695;1330;22571;-69
2022/08/06 08:59:06;;;;;;;;;;;;;;;19.68;89.33;100919.98;84660;1330;22529;-70
2022/08/06 09:01:37;;;;;;;;;;;;;;;19.69;89.12;100926.00;84641;1329;25433;-71
2022/08/06 09:03:44;;;;;;;;;;;;;;;19.66;89.09;100931.27;84585;1331;22630;-71
2022/08/06 09:05:51;;;;;;;;;;;;;;;19.58;88.56;100925.59;84718;1328;22576;-70
2022/08/06 09:08:00;;;;;;;;;;;;;;;19.52;88.75;100923.67;84680;1324;25472;-71
2022/08/06 09:10:10;;;;;;;;;;;;;;;19.51;89.02;100927.86;84688;1330;22573;-71
2022/08/06 09:12:17;;;;;;;;;;;;;;;19.45;89.15;100928.43;84269;1329;561015;-74
2022/08/06 09:14:24;;;;;;;;;;;;;;;19.39;89.15;100929.16;84678;1330;22583;-75
2022/08/06 09:16:31;;;;;;;;;;;;;;;19.32;88.55;100925.91;84679;1332;25253;-73
2022/08/06 09:18:41;;;;;;;;;;;;;;;19.28;88.30;100927.62;84683;1330;22593;-72
2022/08/06 09:20:49;;;;;;;;;;;;;;;19.23;87.76;100935.02;84720;1327;22583;-72
2022/08/06 09:22:56;;;;;;;;;;;;;;;19.17;87.42;100936.08;84752;1327;23814;-71
2022/08/06 09:25:05;;;;;;;;;;;;;;;19.07;87.26;100941.88;84778;1327;22650;-71
2022/08/06 09:27:12;;;;;;;;;;;;;;;18.95;87.29;100947.56;84684;1328;22566;-71
2022/08/06 09:29:24;;;;;;;;;;;;;;;18.87;87.28;100955.73;84733;1327;22584;-71
2022/08/06 09:31:31;;;;;;;;;;;;;;;18.80;87.56;100955.42;84701;1330;22590;-70
2022/08/06 09:33:41;;;;;;;;;;;;;;;18.71;87.31;100955.65;84657;1324;22934;-70
2022/08/06 09:35:49;;;;;;;;;;;;;;;18.64;87.37;100956.95;84677;1332;22587;-71
2022/08/06 09:38:04;;;;;;;;;;;;;;;18.59;87.30;100962.42;84708;1330;22914;-70
2022/08/06 09:40:19;;;;;;;;;;;;;;;18.50;87.46;100966.48;84719;1329;22578;-71
2022/08/06 09:42:46;;;;;;;;;;;;;;;18.42;87.67;100961.30;84689;1329;23032;-71
2022/08/06 09:44:54;;;;;;;;;;;;;;;18.39;87.78;100967.34;84674;1329;24306;-70
2022/08/06 09:47:19;;;;;;;;;;;;;;;18.33;87.86;100972.45;84662;1329;25617;-70
2022/08/06 09:49:28;;;;;;;;;;;;;;;18.27;87.92;100976.52;84691;1328;22726;-71
2022/08/06 09:51:35;;;;;;;;;;;;;;;18.23;88.15;100978.73;84675;1325;22584;-71
2022/08/06 09:53:52;;;;;;;;;;;;;;;18.18;87.94;100984.34;84760;1329;23821;-70
2022/08/06 09:56:09;;;;;;;;;;;;;;;18.10;87.88;100985.33;84678;1330;24264;-70
2022/08/06 09:58:16;;;;;;;;;;;;;;;18.06;87.89;100993.69;84687;1329;25423;-71
2022/08/06 10:00:28;;;;;;;;;;;;;;;18.03;88.01;100995.27;84704;1330;22667;-72
2022/08/06 10:02:36;;;;;;;;;;;;;;;18.00;88.26;100995.27;84688;1329;22566;-70
2022/08/06 10:04:43;;;;;;;;;;;;;;;17.94;87.92;101000.02;84689;1328;24382;-70
2022/08/06 10:06:57;;;;;;;;;;;;;;;17.89;87.96;101002.83;84740;1327;22611;-70
2022/08/06 10:09:11;;;;;;;;;;;;;;;17.86;88.09;101004.08;84777;1327;22555;-71
2022/08/06 10:11:32;;;;;;;;;;;;;;;17.86;88.51;100999.11;84745;1327;22566;-69
2022/08/06 10:13:39;;;;;;;;;;;;;;;17.86;88.42;100994.02;84713;1324;25421;-70
2022/08/06 10:15:48;;;;;;;;;;;;;;;17.83;88.52;100996.96;84746;1329;22668;-70
2022/08/06 10:17:55;;;;;;;;;;;;;;;17.79;88.47;100999.34;84696;1330;22589;-70
2022/08/06 10:20:10;;;;;;;;;;;;;;;17.77;88.51;101002.45;84747;1327;22641;-71
2022/08/06 10:22:18;;;;;;;;;;;;;;;17.74;88.51;101005.08;84704;1329;22564;-70
2022/08/06 10:24:25;;;;;;;;;;;;;;;17.73;88.79;101012.01;84724;1329;24367;-72
2022/08/06 10:26:34;;;;;;;;;;;;;;;17.72;88.62;101016.28;84710;1328;22575;-70
2022/08/06 10:28:45;;;;;;;;;;;;;;;17.74;89.20;101022.36;84711;1330;22668;-70
2022/08/06 10:30:57;;;;;;;;;;;;;;;17.74;88.92;101027.33;84750;1328;22584;-71
2022/08/06 10:33:06;;;;;;;;;;;;;;;17.75;88.97;101030.94;84704;1328;22721;-71
2022/08/06 10:35:13;;;;;;;;;;;;;;;17.77;88.99;101037.89;84692;1329;22866;-71
2022/08/06 10:37:21;;;;;;;;;;;;;;;17.81;89.15;101034.16;84736;1327;23939;-71
2022/08/06 10:39:32;;;;;;;;;;;;;;;17.84;89.23;101039.83;84677;1332;22580;-71
2022/08/06 10:41:40;;;;;;;;;;;;;;;17.82;89.12;101040.66;84723;1330;24288;-70
2022/08/06 10:43:47;;;;;;;;;;;;;;;17.77;88.69;101041.62;84740;1325;23051;-70
2022/08/06 10:45:54;;;;;;;;;;;;;;;17.74;88.60;101043.41;84659;1328;23727;-70
2022/08/06 10:48:01;;;;;;;;;;;;;;;17.71;89.18;101037.48;84678;1330;24250;-70
2022/08/06 10:50:10;;;;;;;;;;;;;;;17.71;89.13;101042.46;84648;1325;22593;-69
2022/08/06 10:52:19;;;;;;;;;;;;;;;17.72;88.94;101053.70;84661;1332;22843;-70
2022/08/06 10:54:29;;;;;;;;;;;;;;;17.73;89.22;101063.34;84681;1329;22580;-70
2022/08/06 10:56:37;;;;;;;;;;;;;;;17.73;89.17;101066.37;84662;1325;24469;-70
2022/08/06 10:58:44;;;;;;;;;;;;;;;17.72;88.92;101063.21;84762;1327;22562;-71
2022/08/06 11:00:52;;;;;;;;;;;;;;;17.70;88.93;101058.91;84656;1330;22597;-69
2022/08/06 11:03:10;;;;;;;;;;;;;;;17.74;89.31;101057.83;84718;1328;22568;-70
2022/08/06 11:05:19;;;;;;;;;;;;;;;17.76;88.97;101065.85;84669;1329;22625;-69
2022/08/06 11:08:06;;;;;;;;;;;;;;;17.74;89.03;101064.75;84748;1327;22711;-70